createdAt,value
2023-02-13T00:01:41.213Z,5.60
2023-02-13T00:04:09.722Z,5.50
2023-02-13T00:06:41.023Z,5.50
2023-02-13T00:09:11.101Z,5.60
2023-02-13T00:11:42.139Z,5.60
2023-02-13T00:14:10.366Z,5.70
2023-02-13T00:16:40.563Z,5.90
2023-02-13T00:19:09.679Z,6.00
2023-02-13T00:21:38.507Z,5.90
2023-02-13T00:24:10.616Z,5.90
2023-02-13T00:26:41.680Z,5.70
2023-02-13T00:29:11.503Z,5.70
2023-02-13T00:31:41.454Z,5.90
2023-02-13T00:34:10.241Z,5.90
2023-02-13T00:36:41.073Z,5.80
2023-02-13T00:39:12.027Z,5.80
2023-02-13T00:41:40.234Z,5.80
2023-02-13T00:44:08.624Z,5.80
2023-02-13T00:46:37.115Z,5.70
2023-02-13T00:49:06.961Z,5.80
2023-02-13T00:51:36.282Z,5.80
2023-02-13T00:54:05.257Z,5.50
2023-02-13T00:56:33.685Z,5.50
2023-02-13T00:59:01.815Z,5.40
2023-02-13T01:01:30.225Z,5.50
2023-02-13T01:03:58.539Z,5.50
2023-02-13T01:06:29.094Z,5.50
2023-02-13T01:08:57.364Z,5.40
2023-02-13T01:11:25.497Z,5.60
2023-02-13T01:13:54.082Z,5.60
2023-02-13T01:16:22.426Z,5.60
2023-02-13T01:18:50.603Z,5.70
2023-02-13T01:21:20.993Z,5.70
2023-02-13T01:23:51.573Z,5.70
2023-02-13T01:26:22.289Z,5.70
2023-02-13T01:28:57.763Z,5.60
2023-02-13T01:31:26.093Z,5.70
2023-02-13T01:33:57.378Z,5.70
2023-02-13T01:36:26.194Z,5.80
2023-02-13T01:38:57.575Z,5.70
2023-02-13T01:41:27.287Z,5.50
2023-02-13T01:43:58.085Z,5.50
2023-02-13T01:46:30.236Z,5.50
2023-02-13T01:49:03.556Z,5.50
2023-02-13T01:51:35.049Z,5.40
2023-02-13T01:54:10.117Z,5.40
2023-02-13T01:56:40.604Z,5.70
2023-02-13T01:59:14.642Z,5.40
2023-02-13T02:01:45.048Z,5.30
2023-02-13T02:04:18.896Z,5.40
2023-02-13T02:06:52.061Z,5.40
2023-02-13T02:09:24.988Z,5.60
2023-02-13T02:12:00.632Z,5.50
2023-02-13T02:14:29.171Z,5.50
2023-02-13T02:16:58.033Z,5.60
2023-02-13T02:19:36.478Z,5.60
2023-02-13T02:22:31.867Z,5.60
2023-02-13T02:25:27.948Z,5.70
2023-02-13T02:28:32.666Z,5.70
2023-02-13T02:31:39.280Z,5.60
2023-02-13T02:34:19.298Z,5.50
2023-02-13T02:37:02.670Z,5.50
2023-02-13T02:39:41.518Z,5.40
2023-02-13T02:42:19.509Z,5.50
2023-02-13T02:44:56.070Z,5.50
2023-02-13T02:47:45.875Z,5.50
2023-02-13T02:50:24.571Z,5.50
2023-02-13T02:53:05.997Z,5.60
2023-02-13T02:55:40.980Z,5.50
2023-02-13T02:58:32.473Z,5.40
2023-02-13T03:01:21.113Z,5.40
2023-02-13T03:04:08.210Z,5.20
2023-02-13T03:06:41.031Z,5.30
2023-02-13T03:09:32.004Z,5.20
2023-02-13T03:12:18.028Z,5.30
2023-02-13T03:14:46.202Z,5.40
2023-02-13T03:17:34.288Z,5.30
2023-02-13T03:20:50.282Z,5.30
2023-02-13T03:23:29.155Z,5.30
2023-02-13T03:26:15.606Z,5.20
2023-02-13T03:29:10.318Z,5.20
2023-02-13T03:31:46.837Z,5.10
2023-02-13T03:34:18.325Z,5.20
2023-02-13T03:37:09.849Z,5.10
2023-02-13T03:39:49.086Z,5.10
2023-02-13T03:42:29.082Z,5.20
2023-02-13T03:45:18.009Z,5.00
2023-02-13T03:47:48.832Z,4.90
2023-02-13T03:50:18.082Z,4.90
2023-02-13T03:52:52.272Z,5.00
2023-02-13T03:55:42.493Z,5.10
2023-02-13T03:58:32.440Z,5.00
2023-02-13T04:01:08.176Z,5.00
2023-02-13T04:03:45.777Z,4.90
2023-02-13T04:06:17.104Z,4.80
2023-02-13T04:08:45.562Z,4.90
2023-02-13T04:11:18.988Z,4.90
2023-02-13T04:13:53.789Z,4.90
2023-02-13T04:16:28.954Z,4.90
2023-02-13T04:18:59.082Z,4.80
2023-02-13T04:21:27.605Z,4.90
2023-02-13T04:23:56.176Z,4.90
2023-02-13T04:26:34.024Z,4.90
2023-02-13T04:29:02.235Z,4.90
2023-02-13T04:31:31.602Z,4.90
2023-02-13T04:34:00.211Z,4.90
2023-02-13T04:36:28.507Z,4.70
2023-02-13T04:38:57.271Z,4.70
2023-02-13T04:41:28.017Z,4.60
2023-02-13T04:43:56.628Z,4.60
2023-02-13T04:46:25.605Z,4.50
2023-02-13T04:48:53.814Z,4.50
2023-02-13T04:51:22.460Z,4.50
2023-02-13T04:53:50.767Z,4.50
2023-02-13T04:56:19.988Z,4.50
2023-02-13T04:58:52.040Z,4.70
2023-02-13T05:01:23.977Z,4.50
2023-02-13T05:03:54.293Z,4.40
2023-02-13T05:06:24.986Z,4.50
2023-02-13T05:08:53.438Z,4.40
2023-02-13T05:11:21.771Z,4.50
2023-02-13T05:13:51.914Z,4.50
2023-02-13T05:16:20.290Z,4.50
2023-02-13T05:18:48.602Z,4.50
2023-02-13T05:21:34.651Z,4.40
2023-02-13T05:24:02.899Z,4.40
2023-02-13T05:26:38.320Z,4.40
2023-02-13T05:29:22.983Z,4.40
2023-02-13T05:31:53.073Z,4.40
2023-02-13T05:34:25.676Z,4.30
2023-02-13T05:36:54.308Z,4.30
2023-02-13T05:39:24.040Z,4.10
2023-02-13T05:41:52.208Z,4.20
2023-02-13T05:44:22.843Z,4.10
2023-02-13T05:46:53.296Z,4.10
2023-02-13T05:49:22.952Z,4.20
2023-02-13T05:52:41.828Z,4.00
2023-02-13T05:55:10.071Z,4.10
2023-02-13T05:57:40.408Z,4.10
2023-02-13T06:00:11.864Z,4.10
2023-02-13T06:02:40.135Z,4.20
2023-02-13T06:05:10.071Z,4.20
2023-02-13T06:07:39.002Z,4.30
2023-02-13T06:10:09.384Z,4.20
2023-02-13T06:12:38.197Z,4.20
2023-02-13T06:15:08.349Z,4.10
2023-02-13T06:17:38.186Z,4.20
2023-02-13T06:20:08.647Z,4.10
2023-02-13T06:22:38.837Z,4.10
2023-02-13T06:25:09.396Z,4.20
2023-02-13T06:27:39.950Z,4.10
2023-02-13T06:30:09.443Z,4.20
2023-02-13T06:32:39.476Z,4.30
2023-02-13T06:35:09.429Z,4.30
2023-02-13T06:37:39.316Z,4.20
2023-02-13T06:40:08.779Z,4.20
2023-02-13T06:42:38.028Z,4.20
2023-02-13T06:45:07.398Z,4.30
2023-02-13T06:47:36.400Z,4.30
2023-02-13T06:50:08.376Z,4.30
2023-02-13T06:52:38.223Z,4.20
2023-02-13T06:55:09.145Z,4.10
2023-02-13T06:57:38.423Z,4.10
2023-02-13T07:00:08.058Z,4.20
2023-02-13T07:02:39.295Z,4.20
2023-02-13T07:05:10.218Z,4.20
2023-02-13T07:07:39.454Z,4.20
2023-02-13T07:10:09.443Z,4.10
2023-02-13T07:12:37.938Z,4.10
2023-02-13T07:15:08.113Z,4.00
2023-02-13T07:17:36.509Z,4.20
2023-02-13T07:20:06.404Z,4.30
2023-02-13T07:22:37.532Z,4.20
2023-02-13T07:25:07.810Z,4.10
2023-02-13T07:27:36.271Z,4.10
2023-02-13T07:30:04.996Z,4.20
2023-02-13T07:32:34.858Z,4.20
2023-02-13T07:35:03.244Z,4.20
2023-02-13T07:37:32.121Z,4.10
2023-02-13T07:40:02.149Z,4.10
2023-02-13T07:42:30.507Z,4.20
2023-02-13T07:44:59.006Z,4.20
2023-02-13T07:47:27.256Z,4.40
2023-02-13T07:49:55.824Z,4.30
2023-02-13T07:52:25.402Z,4.40
2023-02-13T07:54:53.637Z,4.40
2023-02-13T07:57:23.130Z,4.40
2023-02-13T07:59:51.492Z,4.30
2023-02-13T08:02:19.660Z,4.20
2023-02-13T08:04:47.845Z,4.30
2023-02-13T08:07:18.675Z,4.30
2023-02-13T08:10:06.310Z,4.30
2023-02-13T08:12:37.813Z,4.20
2023-02-13T08:15:07.042Z,4.30
2023-02-13T08:17:35.288Z,4.30
2023-02-13T08:20:04.764Z,4.30
2023-02-13T08:22:37.375Z,4.30
2023-02-13T08:25:06.665Z,4.30
2023-02-13T08:27:36.030Z,4.40
2023-02-13T08:30:06.393Z,4.40
2023-02-13T08:32:52.081Z,4.30
2023-02-13T08:35:22.677Z,4.40
2023-02-13T08:37:51.189Z,4.40
2023-02-13T08:40:20.184Z,4.30
2023-02-13T08:42:52.421Z,4.30
2023-02-13T08:45:23.346Z,4.40
2023-02-13T08:47:51.533Z,4.40
2023-02-13T08:50:19.685Z,4.50
2023-02-13T08:52:47.952Z,4.50
2023-02-13T08:55:18.155Z,4.60
2023-02-13T08:57:46.485Z,4.60
2023-02-13T09:00:15.898Z,4.60
2023-02-13T09:02:47.945Z,4.60
2023-02-13T09:05:16.244Z,4.50
2023-02-13T09:07:45.467Z,4.50
2023-02-13T09:10:15.629Z,4.40
2023-02-13T09:12:44.198Z,4.50
2023-02-13T09:15:12.390Z,4.50
2023-02-13T09:17:40.510Z,4.50
2023-02-13T09:20:12.491Z,4.60
2023-02-13T09:22:40.708Z,4.60
2023-02-13T09:25:10.374Z,4.70
2023-02-13T09:27:39.101Z,4.70
2023-02-13T09:30:09.103Z,4.80
2023-02-13T09:32:38.792Z,4.80
2023-02-13T09:35:11.140Z,5.00
2023-02-13T09:37:41.831Z,4.90
2023-02-13T09:40:23.847Z,5.00
2023-02-13T09:42:53.878Z,5.00
2023-02-13T09:45:25.018Z,5.00
2023-02-13T09:47:53.548Z,5.00
2023-02-13T09:50:27.960Z,5.10
2023-02-13T09:53:03.265Z,5.20
2023-02-13T09:55:41.559Z,5.20
2023-02-13T09:58:16.406Z,5.30
2023-02-13T10:00:52.408Z,5.30
2023-02-13T10:03:27.592Z,5.30
2023-02-13T10:06:08.572Z,5.20
2023-02-13T10:08:50.981Z,5.40
2023-02-13T10:11:45.294Z,5.40
2023-02-13T10:14:20.323Z,5.40
2023-02-13T10:16:53.997Z,5.40
2023-02-13T10:19:35.903Z,5.50
2023-02-13T10:22:08.156Z,5.50
2023-02-13T10:24:42.296Z,5.60
2023-02-13T10:27:20.308Z,5.70
2023-02-13T10:30:12.592Z,5.80
2023-02-13T10:33:13.844Z,5.80
2023-02-13T10:35:44.085Z,6.10
2023-02-13T10:38:20.355Z,6.50
2023-02-13T10:40:59.516Z,6.60
2023-02-13T10:43:35.124Z,6.90
2023-02-13T10:46:15.621Z,7.40
2023-02-13T10:49:00.508Z,7.40
2023-02-13T10:51:37.238Z,7.30
2023-02-13T10:54:24.816Z,7.40
2023-02-13T10:57:04.555Z,7.90
2023-02-13T10:59:58.547Z,7.70
2023-02-13T11:02:29.393Z,7.50
2023-02-13T11:05:02.144Z,7.50
2023-02-13T11:07:33.263Z,7.60
2023-02-13T11:10:14.978Z,7.70
2023-02-13T11:12:43.178Z,7.90
2023-02-13T11:15:25.739Z,8.10
2023-02-13T11:17:57.823Z,8.30
2023-02-13T11:20:35.125Z,8.70
2023-02-13T11:23:28.670Z,8.80
2023-02-13T11:26:00.990Z,8.80
2023-02-13T11:28:31.606Z,9.10
2023-02-13T11:31:16.208Z,9.30
2023-02-13T11:33:46.236Z,9.80
2023-02-13T11:36:18.279Z,10.10
2023-02-13T11:39:02.800Z,10.20
2023-02-13T11:41:38.965Z,10.50
2023-02-13T11:44:08.649Z,10.50
2023-02-13T11:46:49.337Z,10.80
2023-02-13T11:49:22.653Z,10.80
2023-02-13T11:51:53.125Z,10.50
2023-02-13T11:54:33.684Z,10.20
2023-02-13T11:57:16.660Z,9.90
2023-02-13T11:59:47.161Z,9.70
2023-02-13T12:02:20.462Z,10.10
2023-02-13T12:04:50.849Z,10.20
2023-02-13T12:07:23.203Z,10.30
2023-02-13T12:09:56.823Z,10.60
2023-02-13T12:12:34.148Z,10.50
2023-02-13T12:15:06.720Z,10.90
2023-02-13T12:17:36.712Z,11.20
2023-02-13T12:20:08.127Z,11.50
2023-02-13T12:22:48.669Z,11.60
2023-02-13T12:25:43.603Z,11.70
2023-02-13T12:28:18.199Z,11.80
2023-02-13T12:31:22.130Z,12.30
2023-02-13T12:34:29.184Z,12.60
2023-02-13T12:37:09.261Z,12.40
2023-02-13T12:39:42.174Z,11.90
2023-02-13T12:42:27.316Z,12.20
2023-02-13T12:45:17.574Z,12.00
2023-02-13T12:48:03.410Z,12.30
2023-02-13T12:50:45.630Z,12.40
2023-02-13T12:53:47.637Z,12.50
2023-02-13T12:56:42.578Z,12.40
2023-02-13T12:59:21.036Z,12.30
2023-02-13T13:02:27.657Z,12.40
2023-02-13T13:05:13.644Z,12.40
2023-02-13T13:07:59.549Z,12.60
2023-02-13T13:10:44.636Z,12.60
2023-02-13T13:13:24.882Z,12.10
2023-02-13T13:16:02.117Z,12.60
2023-02-13T13:18:46.308Z,13.60
2023-02-13T13:21:25.648Z,14.10
2023-02-13T13:24:00.554Z,14.30
2023-02-13T13:26:37.251Z,14.50
2023-02-13T13:29:12.112Z,14.10
2023-02-13T13:31:40.807Z,14.10
2023-02-13T13:34:18.502Z,14.50
2023-02-13T13:36:52.582Z,15.30
2023-02-13T13:39:33.827Z,15.70
2023-02-13T13:42:10.639Z,15.30
2023-02-13T13:44:54.096Z,13.50
2023-02-13T13:47:29.302Z,12.70
2023-02-13T13:50:01.159Z,12.20
2023-02-13T13:52:33.022Z,12.00
2023-02-13T13:55:07.699Z,12.50
2023-02-13T13:58:00.537Z,12.00
2023-02-13T14:00:31.839Z,12.10
2023-02-13T14:03:25.208Z,12.10
2023-02-13T14:06:04.141Z,11.80
2023-02-13T14:09:04.655Z,12.00
2023-02-13T14:11:49.303Z,12.40
2023-02-13T14:14:45.451Z,13.00
2023-02-13T14:17:16.640Z,13.60
2023-02-13T14:19:52.958Z,13.80
2023-02-13T14:22:35.441Z,13.90
2023-02-13T14:25:08.405Z,14.30
2023-02-13T14:27:39.789Z,14.10
2023-02-13T14:30:26.124Z,13.90
2023-02-13T14:33:01.715Z,13.40
2023-02-13T14:35:33.504Z,13.30
2023-02-13T14:38:07.310Z,13.40
2023-02-13T14:40:48.185Z,13.30
2023-02-13T14:43:28.711Z,13.00
2023-02-13T14:45:59.261Z,12.50
2023-02-13T14:48:41.631Z,12.20
2023-02-13T14:51:18.562Z,11.70
2023-02-13T14:53:53.511Z,11.30
2023-02-13T14:56:27.392Z,10.70
2023-02-13T14:59:08.075Z,10.50
2023-02-13T15:01:41.832Z,10.40
2023-02-13T15:04:19.877Z,10.30
2023-02-13T15:06:51.938Z,10.10
2023-02-13T15:09:28.303Z,9.70
2023-02-13T15:11:56.450Z,9.60
2023-02-13T15:14:32.790Z,10.00
2023-02-13T15:17:06.821Z,10.10
2023-02-13T15:19:39.064Z,9.70
2023-02-13T15:22:09.048Z,9.60
2023-02-13T15:24:47.340Z,9.70
2023-02-13T15:27:20.765Z,9.60
2023-02-13T15:29:58.874Z,9.50
2023-02-13T15:32:33.368Z,9.30
2023-02-13T15:35:22.382Z,9.30
2023-02-13T15:37:50.694Z,9.40
2023-02-13T15:40:25.068Z,9.50
2023-02-13T15:42:54.011Z,9.30
2023-02-13T15:45:27.181Z,9.30
2023-02-13T15:47:59.088Z,9.00
2023-02-13T15:50:32.166Z,8.90
2023-02-13T15:53:03.879Z,9.00
2023-02-13T15:55:36.252Z,8.80
2023-02-13T15:58:05.619Z,8.90
2023-02-13T16:00:38.245Z,8.60
2023-02-13T16:03:13.733Z,8.50
2023-02-13T16:05:42.099Z,8.50
2023-02-13T16:08:32.127Z,8.30
2023-02-13T16:11:29.499Z,8.50
2023-02-13T16:14:13.759Z,8.40
2023-02-13T16:16:52.012Z,8.20
2023-02-13T16:19:36.665Z,8.00
2023-02-13T16:22:16.719Z,7.90
2023-02-13T16:24:50.769Z,7.90
2023-02-13T16:27:21.754Z,7.80
2023-02-13T16:29:55.644Z,7.60
2023-02-13T16:32:30.657Z,7.60
2023-02-13T16:35:18.040Z,7.70
2023-02-13T16:37:56.275Z,7.60
2023-02-13T16:40:39.635Z,7.60
2023-02-13T16:43:45.379Z,7.70
2023-02-13T16:46:24.161Z,7.70
2023-02-13T16:49:22.852Z,7.50
2023-02-13T16:51:57.438Z,7.60
2023-02-13T16:54:47.955Z,7.60
2023-02-13T16:57:24.631Z,7.50
2023-02-13T17:00:03.924Z,7.40
2023-02-13T17:02:33.990Z,7.40
2023-02-13T17:05:20.392Z,7.40
2023-02-13T17:07:51.291Z,7.30
2023-02-13T17:10:22.085Z,7.20
2023-02-13T17:12:52.421Z,7.10
2023-02-13T17:15:24.087Z,7.00
2023-02-13T17:17:53.716Z,7.00
2023-02-13T17:20:25.659Z,6.80
2023-02-13T17:22:55.374Z,6.60
2023-02-13T17:25:26.295Z,6.20
2023-02-13T17:27:56.241Z,6.00
2023-02-13T17:30:29.230Z,6.10
2023-02-13T17:33:01.300Z,6.20
2023-02-13T17:35:31.378Z,5.70
2023-02-13T17:37:59.687Z,5.30
2023-02-13T17:40:30.226Z,5.30
2023-02-13T17:43:01.862Z,5.40
2023-02-13T17:45:32.829Z,5.60
2023-02-13T17:48:01.406Z,5.20
2023-02-13T17:50:32.825Z,5.30
2023-02-13T17:53:04.106Z,5.20
2023-02-13T17:55:34.228Z,4.80
2023-02-13T17:58:07.026Z,4.70
2023-02-13T18:00:35.544Z,4.40
2023-02-13T18:03:04.609Z,4.30
2023-02-13T18:05:34.402Z,4.40
2023-02-13T18:08:03.227Z,4.70
2023-02-13T18:10:33.864Z,4.80
2023-02-13T18:13:05.049Z,4.80
2023-02-13T18:15:35.282Z,4.80
2023-02-13T18:18:03.931Z,4.60
2023-02-13T18:20:33.865Z,4.50
2023-02-13T18:23:02.238Z,4.60
2023-02-13T18:25:31.058Z,4.40
2023-02-13T18:28:00.474Z,4.00
2023-02-13T18:30:29.244Z,3.70
2023-02-13T18:32:59.274Z,3.70
2023-02-13T18:35:28.311Z,3.90
2023-02-13T18:37:59.553Z,3.90
2023-02-13T18:40:28.240Z,4.10
2023-02-13T18:42:59.356Z,4.20
2023-02-13T18:45:27.764Z,4.40
2023-02-13T18:48:01.177Z,4.60
2023-02-13T18:50:29.977Z,4.60
2023-02-13T18:53:01.203Z,4.60
2023-02-13T18:55:29.585Z,4.70
2023-02-13T18:57:59.853Z,4.60
2023-02-13T19:00:28.277Z,4.60
2023-02-13T19:02:59.732Z,4.40
2023-02-13T19:05:29.533Z,4.50
2023-02-13T19:08:00.567Z,4.60
2023-02-13T19:10:34.020Z,4.30
2023-02-13T19:13:02.659Z,4.00
2023-02-13T19:15:31.762Z,4.10
2023-02-13T19:18:00.783Z,4.00
2023-02-13T19:20:29.089Z,4.10
2023-02-13T19:22:58.132Z,4.10
2023-02-13T19:25:26.506Z,4.00
2023-02-13T19:27:59.816Z,4.10
2023-02-13T19:30:28.169Z,4.20
2023-02-13T19:32:56.520Z,4.30
2023-02-13T19:35:26.000Z,4.30
2023-02-13T19:37:54.259Z,4.40
2023-02-13T19:40:22.442Z,4.30
2023-02-13T19:42:53.850Z,4.20
2023-02-13T19:45:23.576Z,4.00
2023-02-13T19:47:51.910Z,3.90
2023-02-13T19:50:22.361Z,3.80
2023-02-13T19:52:52.680Z,3.50
2023-02-13T19:55:24.658Z,3.40
2023-02-13T19:57:52.963Z,3.00
2023-02-13T20:00:23.775Z,3.10
2023-02-13T20:02:54.994Z,3.40
2023-02-13T20:05:23.275Z,3.40
2023-02-13T20:07:51.639Z,3.30
2023-02-13T20:10:20.310Z,3.30
2023-02-13T20:12:53.733Z,2.90
2023-02-13T20:15:24.700Z,2.80
2023-02-13T20:17:52.966Z,3.00
2023-02-13T20:20:21.652Z,3.00
2023-02-13T20:22:50.997Z,3.10
2023-02-13T20:25:19.390Z,3.10
2023-02-13T20:27:47.525Z,3.20
2023-02-13T20:30:17.895Z,3.20
2023-02-13T20:32:51.248Z,3.30
2023-02-13T20:35:19.747Z,3.30
2023-02-13T20:37:48.141Z,3.00
2023-02-13T20:40:16.739Z,3.20
2023-02-13T20:42:45.987Z,3.10
2023-02-13T20:45:14.193Z,2.90
2023-02-13T20:47:42.861Z,2.70
2023-02-13T20:50:12.917Z,2.70
2023-02-13T20:52:41.433Z,3.00
2023-02-13T20:55:10.334Z,3.00
2023-02-13T20:57:39.152Z,2.90
2023-02-13T21:00:12.104Z,2.80
2023-02-13T21:02:40.866Z,2.60
2023-02-13T21:05:09.340Z,2.50
2023-02-13T21:07:39.122Z,2.50
2023-02-13T21:10:08.425Z,2.50
2023-02-13T21:12:37.673Z,2.40
2023-02-13T21:15:06.258Z,2.50
2023-02-13T21:17:36.431Z,2.50
2023-02-13T21:20:05.889Z,2.50
2023-02-13T21:22:34.485Z,2.60
2023-02-13T21:25:04.484Z,2.60
2023-02-13T21:27:33.059Z,2.80
2023-02-13T21:30:01.358Z,2.60
2023-02-13T21:32:30.171Z,2.40
2023-02-13T21:34:58.520Z,2.70
2023-02-13T21:37:27.879Z,2.70
2023-02-13T21:39:56.156Z,2.70
2023-02-13T21:42:25.861Z,2.90
2023-02-13T21:44:56.706Z,2.90
2023-02-13T21:47:25.679Z,2.90
2023-02-13T21:49:54.152Z,2.80
2023-02-13T21:52:22.749Z,2.80
2023-02-13T21:54:51.027Z,2.70
2023-02-13T21:57:19.570Z,2.40
2023-02-13T21:59:50.201Z,2.50
2023-02-13T22:02:18.852Z,2.60
2023-02-13T22:04:47.568Z,2.50
2023-02-13T22:07:16.652Z,2.60
2023-02-13T22:09:45.315Z,2.60
2023-02-13T22:12:13.453Z,2.60
2023-02-13T22:14:42.997Z,2.60
2023-02-13T22:17:12.770Z,2.50
2023-02-13T22:19:41.367Z,2.60
2023-02-13T22:22:09.796Z,2.70
2023-02-13T22:24:38.641Z,2.60
2023-02-13T22:27:07.693Z,2.70
2023-02-13T22:29:36.985Z,2.60
2023-02-13T22:32:05.638Z,2.30
2023-02-13T22:34:35.492Z,2.40
2023-02-13T22:37:04.041Z,2.00
2023-02-13T22:39:32.969Z,2.10
2023-02-13T22:42:01.515Z,2.30
2023-02-13T22:44:30.192Z,2.40
2023-02-13T22:46:58.862Z,2.40
2023-02-13T22:49:27.548Z,2.50
2023-02-13T22:51:57.264Z,2.20
2023-02-13T22:54:25.807Z,2.00
2023-02-13T22:56:53.950Z,2.20
2023-02-13T22:59:22.201Z,2.30
2023-02-13T23:01:50.357Z,2.30
2023-02-13T23:04:18.694Z,2.20
2023-02-13T23:06:47.286Z,2.20
2023-02-13T23:09:17.077Z,1.90
2023-02-13T23:12:03.056Z,1.70
2023-02-13T23:14:31.342Z,1.70
2023-02-13T23:17:17.226Z,1.90
2023-02-13T23:19:45.764Z,2.00
2023-02-13T23:22:14.040Z,2.10
2023-02-13T23:24:44.526Z,2.00
2023-02-13T23:27:13.486Z,2.10
2023-02-13T23:29:41.687Z,2.10
2023-02-13T23:32:10.952Z,2.10
2023-02-13T23:34:39.168Z,2.10
2023-02-13T23:37:07.562Z,2.20
2023-02-13T23:39:35.818Z,2.20
2023-02-13T23:42:05.909Z,2.20
2023-02-13T23:44:34.271Z,2.30
2023-02-13T23:47:03.477Z,2.30
2023-02-13T23:49:31.767Z,2.30
2023-02-13T23:52:01.606Z,2.30
2023-02-13T23:54:30.534Z,2.20
2023-02-13T23:56:58.912Z,2.10
2023-02-13T23:59:28.593Z,2.20
